createdAt,value
2023-03-05T00:02:00.932Z,2.30
2023-03-05T00:04:29.044Z,2.37
2023-03-05T00:06:58.581Z,2.60
2023-03-05T00:09:27.331Z,2.50
2023-03-05T00:11:55.465Z,2.77
2023-03-05T00:14:23.904Z,2.10
2023-03-05T00:16:54.433Z,1.50
2023-03-05T00:19:22.784Z,2.30
2023-03-05T00:21:51.306Z,2.10
2023-03-05T00:24:22.991Z,2.00
2023-03-05T00:26:51.202Z,2.30
2023-03-05T00:29:22.022Z,1.93
2023-03-05T00:31:50.132Z,1.53
2023-03-05T00:34:20.453Z,2.30
2023-03-05T00:36:53.284Z,1.85
2023-03-05T00:39:25.183Z,3.07
2023-03-05T00:41:54.379Z,2.63
2023-03-05T00:44:22.500Z,2.60
2023-03-05T00:46:51.796Z,2.17
2023-03-05T00:49:22.594Z,2.60
2023-03-05T00:51:50.838Z,2.70
2023-03-05T00:54:19.325Z,3.73
2023-03-05T00:56:51.014Z,3.10
2023-03-05T00:59:19.231Z,2.57
2023-03-05T01:01:50.549Z,2.73
2023-03-05T01:04:18.900Z,2.50
2023-03-05T01:06:47.237Z,3.17
2023-03-05T01:09:17.701Z,3.27
2023-03-05T01:11:45.830Z,3.83
2023-03-05T01:14:18.228Z,3.00
2023-03-05T01:16:47.011Z,3.40
2023-03-05T01:19:19.640Z,3.40
2023-03-05T01:21:47.787Z,3.22
2023-03-05T01:24:16.633Z,4.00
2023-03-05T01:26:44.783Z,4.13
2023-03-05T01:29:13.093Z,4.07
2023-03-05T01:31:45.593Z,3.63
2023-03-05T01:34:13.948Z,3.73
2023-03-05T01:36:42.735Z,3.53
2023-03-05T01:39:14.030Z,3.70
2023-03-05T01:41:42.218Z,3.00
2023-03-05T01:44:23.032Z,3.60
2023-03-05T01:46:52.653Z,4.20
2023-03-05T01:49:27.779Z,3.77
2023-03-05T01:52:02.397Z,4.10
2023-03-05T01:54:34.878Z,4.43
2023-03-05T01:57:11.510Z,3.05
2023-03-05T01:59:42.928Z,4.20
2023-03-05T02:02:14.086Z,4.43
2023-03-05T02:04:46.966Z,4.47
2023-03-05T02:09:45.188Z,3.23
2023-03-05T02:12:16.575Z,3.13
2023-03-05T02:14:49.665Z,3.77
2023-03-05T02:17:19.333Z,3.33
2023-03-05T02:19:49.863Z,3.87
2023-03-05T02:22:22.619Z,4.47
2023-03-05T02:24:52.388Z,4.85
2023-03-05T02:27:23.985Z,4.17
2023-03-05T02:29:53.542Z,4.93
2023-03-05T02:32:21.992Z,5.20
2023-03-05T02:34:50.368Z,4.23
2023-03-05T02:37:23.187Z,3.77
2023-03-05T02:39:52.977Z,3.97
2023-03-05T02:42:21.260Z,4.07
2023-03-05T02:44:50.000Z,4.37
2023-03-05T02:47:18.060Z,4.47
2023-03-05T02:49:46.340Z,3.70
2023-03-05T02:52:14.588Z,4.07
2023-03-05T02:54:44.389Z,4.13
2023-03-05T02:57:12.803Z,4.37
2023-03-05T02:59:41.221Z,4.47
2023-03-05T03:02:09.868Z,3.70
2023-03-05T03:04:38.319Z,3.67
2023-03-05T03:07:07.206Z,4.47
2023-03-05T03:09:36.222Z,4.30
2023-03-05T03:12:08.031Z,4.30
2023-03-05T03:14:41.365Z,4.85
2023-03-05T03:17:11.774Z,3.83
2023-03-05T03:19:41.894Z,5.13
2023-03-05T03:22:12.167Z,3.90
2023-03-05T03:24:42.054Z,4.80
2023-03-05T03:27:11.935Z,4.30
2023-03-05T03:29:40.122Z,3.47
2023-03-05T03:32:09.254Z,4.40
2023-03-05T03:34:37.704Z,3.93
2023-03-05T03:37:08.513Z,5.23
2023-03-05T03:39:37.199Z,4.90
2023-03-05T03:42:05.851Z,4.67
2023-03-05T03:44:35.620Z,6.03
2023-03-05T03:47:06.895Z,4.83
2023-03-05T03:49:35.348Z,5.03
2023-03-05T03:52:03.624Z,5.13
2023-03-05T03:54:31.909Z,5.87
2023-03-05T03:57:00.184Z,3.97
2023-03-05T03:59:31.356Z,4.90
2023-03-05T04:02:01.676Z,4.83
2023-03-05T04:04:30.622Z,5.77
2023-03-05T04:07:01.175Z,4.73
2023-03-05T04:09:29.704Z,5.07
2023-03-05T04:11:57.995Z,4.23
2023-03-05T04:14:26.892Z,5.07
2023-03-05T04:16:55.342Z,4.70
2023-03-05T04:19:25.020Z,4.90
2023-03-05T04:21:53.288Z,5.13
2023-03-05T04:24:21.796Z,3.90
2023-03-05T04:26:50.079Z,3.90
2023-03-05T04:29:18.451Z,4.57
2023-03-05T04:31:48.929Z,4.57
2023-03-05T04:35:28.306Z,4.30
2023-03-05T04:37:56.495Z,5.07
2023-03-05T04:40:24.944Z,3.93
2023-03-05T04:42:53.072Z,4.60
2023-03-05T04:45:21.600Z,3.50
2023-03-05T04:47:49.788Z,4.87
2023-03-05T04:50:20.826Z,3.50
2023-03-05T04:52:52.804Z,3.83
2023-03-05T04:55:28.538Z,3.80
2023-03-05T04:57:56.671Z,4.10
2023-03-05T05:00:25.572Z,3.77
2023-03-05T05:02:54.171Z,3.50
2023-03-05T05:05:24.461Z,4.17
2023-03-05T05:07:57.253Z,4.10
2023-03-05T05:10:27.086Z,3.70
2023-03-05T05:12:55.490Z,4.37
2023-03-05T05:15:23.958Z,5.10
2023-03-05T05:17:52.797Z,3.73
2023-03-05T05:20:21.189Z,4.07
2023-03-05T05:22:49.700Z,3.93
2023-03-05T05:25:23.884Z,4.47
2023-03-05T05:27:52.387Z,3.87
2023-03-05T05:30:20.527Z,5.07
2023-03-05T05:32:49.002Z,4.83
2023-03-05T05:35:17.330Z,5.10
2023-03-05T05:37:45.863Z,3.77
2023-03-05T05:40:14.526Z,4.03
2023-03-05T05:42:44.710Z,4.53
2023-03-05T05:45:13.676Z,3.93
2023-03-05T05:47:41.899Z,4.07
2023-03-05T05:50:12.049Z,4.53
2023-03-05T05:52:40.548Z,5.20
2023-03-05T05:55:09.682Z,3.43
2023-03-05T05:57:37.848Z,3.37
2023-03-05T06:00:10.365Z,3.93
2023-03-05T06:02:44.377Z,5.17
2023-03-05T06:05:14.791Z,4.27
2023-03-05T06:07:43.864Z,3.90
2023-03-05T06:10:12.752Z,3.93
2023-03-05T06:12:41.160Z,3.77
2023-03-05T06:15:11.409Z,5.27
2023-03-05T06:17:40.053Z,4.00
2023-03-05T06:20:09.846Z,3.47
2023-03-05T06:22:38.260Z,3.43
2023-03-05T06:25:08.405Z,3.30
2023-03-05T06:27:37.311Z,3.20
2023-03-05T06:30:06.468Z,2.97
2023-03-05T06:32:36.167Z,3.53
2023-03-05T06:35:04.764Z,3.83
2023-03-05T06:37:33.143Z,2.93
2023-03-05T06:40:01.270Z,3.03
2023-03-05T06:42:29.628Z,3.80
2023-03-05T06:44:57.868Z,3.23
2023-03-05T06:47:26.949Z,3.30
2023-03-05T06:49:56.473Z,3.23
2023-03-05T06:52:24.770Z,3.10
2023-03-05T06:54:55.803Z,2.97
2023-03-05T06:57:24.541Z,2.83
2023-03-05T06:59:52.742Z,2.80
2023-03-05T07:02:23.915Z,2.10
2023-03-05T07:04:52.322Z,7.07
2023-03-05T07:07:24.569Z,9.83
2023-03-05T07:09:53.815Z,4.37
2023-03-05T07:12:24.755Z,3.73
2023-03-05T07:14:53.420Z,2.50
2023-03-05T07:17:21.574Z,2.53
2023-03-05T07:19:49.938Z,2.33
2023-03-05T07:22:18.635Z,2.50
2023-03-05T07:24:51.311Z,2.17
2023-03-05T07:27:19.486Z,3.23
2023-03-05T07:29:48.060Z,2.53
2023-03-05T07:32:16.285Z,1.87
2023-03-05T07:34:44.723Z,2.28
2023-03-05T07:37:13.077Z,2.58
2023-03-05T07:39:41.238Z,3.42
2023-03-05T07:42:13.433Z,2.50
2023-03-05T07:44:53.739Z,14.73
2023-03-05T07:47:23.282Z,3.40
2023-03-05T07:49:51.525Z,2.83
2023-03-05T07:52:19.786Z,2.50
2023-03-05T07:54:48.288Z,2.42
2023-03-05T07:57:20.038Z,2.80
2023-03-05T07:59:48.518Z,3.30
2023-03-05T08:02:19.081Z,2.15
2023-03-05T08:04:47.974Z,2.67
2023-03-05T08:07:16.781Z,2.38
2023-03-05T08:09:45.251Z,2.78
2023-03-05T08:12:13.496Z,2.58
2023-03-05T08:14:43.600Z,2.40
2023-03-05T08:17:11.763Z,6.68
2023-03-05T08:19:40.152Z,2.72
2023-03-05T08:22:08.399Z,2.45
2023-03-05T08:24:37.079Z,2.10
2023-03-05T08:27:05.409Z,2.42
2023-03-05T08:29:36.266Z,1.88
2023-03-05T08:32:06.661Z,2.80
2023-03-05T08:34:37.617Z,1.70
2023-03-05T08:37:07.804Z,1.40
2023-03-05T08:39:36.192Z,1.25
2023-03-05T08:42:05.290Z,1.67
2023-03-05T08:44:37.098Z,1.45
2023-03-05T08:47:07.086Z,1.60
2023-03-05T08:49:35.616Z,1.48
2023-03-05T08:52:03.783Z,1.13
2023-03-05T08:54:32.086Z,1.08
2023-03-05T08:57:00.484Z,1.13
2023-03-05T08:59:28.917Z,3.75
2023-03-05T09:02:01.854Z,1.45
2023-03-05T09:07:02.213Z,1.88
2023-03-05T09:09:32.629Z,2.22
2023-03-05T09:12:01.801Z,1.42
2023-03-05T09:14:30.762Z,1.50
2023-03-05T09:17:01.315Z,1.38
2023-03-05T09:19:29.626Z,1.30
2023-03-05T09:21:59.178Z,1.67
2023-03-05T09:24:27.784Z,1.30
2023-03-05T09:26:59.750Z,1.15
2023-03-05T09:29:28.781Z,1.30
2023-03-05T09:31:57.296Z,0.98
2023-03-05T09:36:32.235Z,1.45
2023-03-05T09:39:00.589Z,1.02
2023-03-05T09:41:40.802Z,1.83
2023-03-05T09:44:23.590Z,1.60
2023-03-05T09:46:56.988Z,1.85
2023-03-05T09:49:34.284Z,1.65
2023-03-05T09:52:12.554Z,1.23
2023-03-05T09:54:45.640Z,1.48
2023-03-05T09:57:20.952Z,1.35
2023-03-05T09:59:54.232Z,1.58
2023-03-05T10:02:29.020Z,1.05
2023-03-05T10:05:03.833Z,1.85
2023-03-05T10:07:39.538Z,0.93
2023-03-05T10:12:43.341Z,0.85
2023-03-05T10:15:16.866Z,1.25
2023-03-05T10:18:05.396Z,0.77
2023-03-05T10:20:56.800Z,1.52
2023-03-05T10:23:32.883Z,1.42
2023-03-05T10:26:08.506Z,1.20
2023-03-05T10:28:44.653Z,0.77
2023-03-05T10:31:25.494Z,1.58
2023-03-05T10:34:05.387Z,0.95
2023-03-05T10:36:48.250Z,1.23
2023-03-05T10:39:47.648Z,0.77
2023-03-05T10:42:26.136Z,1.52
2023-03-05T10:44:56.104Z,0.70
2023-03-05T10:47:29.098Z,0.80
2023-03-05T10:49:59.247Z,0.60
2023-03-05T10:52:34.409Z,1.05
2023-03-05T10:55:16.454Z,2.50
2023-03-05T10:57:45.551Z,4.30
2023-03-05T11:00:21.928Z,1.35
2023-03-05T11:03:01.670Z,0.60
2023-03-05T11:05:42.074Z,0.60
2023-03-05T11:08:26.312Z,0.88
2023-03-05T11:11:07.454Z,0.52
2023-03-05T11:13:42.501Z,1.08
2023-03-05T11:16:20.925Z,0.60
2023-03-05T11:18:49.806Z,0.63
2023-03-05T11:21:27.748Z,0.70
2023-03-05T11:24:13.918Z,0.80
2023-03-05T11:26:54.572Z,0.60
2023-03-05T11:29:25.112Z,0.52
2023-03-05T11:31:54.736Z,1.10
2023-03-05T11:34:31.469Z,1.02
2023-03-05T11:37:06.204Z,0.73
2023-03-05T11:39:38.465Z,0.80
2023-03-05T11:42:15.116Z,0.50
2023-03-05T11:44:48.655Z,0.65
2023-03-05T11:47:27.963Z,1.20
2023-03-05T11:50:03.285Z,0.85
2023-03-05T11:52:35.726Z,0.63
2023-03-05T11:55:12.206Z,1.50
2023-03-05T11:57:47.605Z,1.15
2023-03-05T12:00:18.859Z,0.80
2023-03-05T12:02:51.225Z,1.40
2023-03-05T12:05:22.469Z,0.77
2023-03-05T12:07:54.236Z,1.05
2023-03-05T12:10:26.630Z,0.65
2023-03-05T12:13:08.112Z,0.63
2023-03-05T12:15:51.238Z,1.08
2023-03-05T12:18:30.600Z,1.10
2023-03-05T12:21:07.221Z,3.65
2023-03-05T12:23:50.969Z,1.13
2023-03-05T12:27:00.289Z,0.75
2023-03-05T12:29:38.774Z,0.88
2023-03-05T12:32:29.076Z,1.02
2023-03-05T12:35:00.126Z,0.70
2023-03-05T12:38:17.182Z,1.05
2023-03-05T12:40:52.100Z,1.60
2023-03-05T12:43:31.642Z,1.25
2023-03-05T12:46:30.105Z,1.20
2023-03-05T12:48:58.730Z,1.45
2023-03-05T12:51:37.789Z,1.02
2023-03-05T12:54:28.433Z,1.95
2023-03-05T12:56:58.254Z,1.67
2023-03-05T12:59:43.504Z,1.48
2023-03-05T13:02:21.935Z,1.48
2023-03-05T13:04:54.470Z,1.10
2023-03-05T13:07:24.652Z,1.35
2023-03-05T13:09:54.813Z,2.10
2023-03-05T13:12:24.163Z,3.53
2023-03-05T13:14:59.798Z,2.83
2023-03-05T13:17:39.288Z,1.33
2023-03-05T13:20:43.875Z,1.00
2023-03-05T13:23:19.894Z,1.17
2023-03-05T13:26:02.863Z,1.73
2023-03-05T13:28:32.136Z,1.77
2023-03-05T13:31:02.890Z,1.50
2023-03-05T13:33:33.116Z,1.50
2023-03-05T13:36:01.874Z,1.60
2023-03-05T13:38:35.629Z,1.50
2023-03-05T13:41:07.204Z,1.30
2023-03-05T13:43:44.439Z,1.33
2023-03-05T13:46:12.712Z,1.42
2023-03-05T13:48:40.882Z,1.67
2023-03-05T13:51:12.144Z,1.35
2023-03-05T13:53:45.678Z,5.55
2023-03-05T13:56:18.935Z,2.10
2023-03-05T13:58:50.777Z,1.50
2023-03-05T14:01:36.845Z,1.40
2023-03-05T14:04:09.733Z,1.58
2023-03-05T14:06:43.412Z,0.93
2023-03-05T14:09:23.509Z,9.65
2023-03-05T14:11:57.906Z,2.63
2023-03-05T14:14:27.412Z,1.40
2023-03-05T14:16:56.838Z,1.25
2023-03-05T14:19:37.347Z,1.35
2023-03-05T14:22:07.327Z,2.00
2023-03-05T14:24:38.558Z,1.55
2023-03-05T14:27:13.314Z,0.98
2023-03-05T14:29:46.854Z,1.38
2023-03-05T14:32:31.862Z,1.75
2023-03-05T14:37:36.583Z,2.28
2023-03-05T14:40:08.159Z,1.25
2023-03-05T14:42:39.338Z,1.23
2023-03-05T14:45:13.854Z,1.88
2023-03-05T14:47:42.155Z,1.38
2023-03-05T14:50:16.330Z,1.05
2023-03-05T14:52:46.724Z,1.52
2023-03-05T14:55:16.310Z,1.13
2023-03-05T14:57:44.501Z,1.08
2023-03-05T15:00:17.435Z,1.20
2023-03-05T15:02:45.673Z,1.63
2023-03-05T15:05:13.997Z,1.15
2023-03-05T15:07:44.343Z,0.90
2023-03-05T15:10:18.242Z,1.23
2023-03-05T15:12:46.910Z,1.05
2023-03-05T15:15:16.221Z,1.52
2023-03-05T15:17:47.544Z,7.60
2023-03-05T15:20:18.526Z,5.55
2023-03-05T15:22:49.241Z,4.28
2023-03-05T15:25:19.900Z,1.83
2023-03-05T15:27:48.994Z,1.27
2023-03-05T15:30:23.573Z,1.52
2023-03-05T15:32:54.455Z,1.75
2023-03-05T15:35:23.998Z,1.40
2023-03-05T15:37:52.732Z,1.73
2023-03-05T15:40:22.975Z,1.35
2023-03-05T15:42:51.699Z,1.13
2023-03-05T15:45:19.979Z,1.83
2023-03-05T15:47:50.073Z,1.58
2023-03-05T15:50:19.479Z,1.25
2023-03-05T15:52:48.134Z,1.85
2023-03-05T15:55:18.286Z,1.35
2023-03-05T15:57:50.158Z,2.50
2023-03-05T16:00:21.494Z,1.13
2023-03-05T16:02:50.753Z,1.75
2023-03-05T16:05:19.347Z,1.30
2023-03-05T16:07:51.744Z,1.20
2023-03-05T16:10:24.016Z,1.50
2023-03-05T16:12:58.684Z,2.78
2023-03-05T16:15:30.438Z,1.90
2023-03-05T16:18:01.954Z,2.13
2023-03-05T16:20:30.286Z,1.92
2023-03-05T16:22:59.078Z,1.10
2023-03-05T16:25:29.742Z,1.50
2023-03-05T16:28:01.797Z,1.70
2023-03-05T16:30:30.873Z,1.95
2023-03-05T16:32:59.158Z,1.70
2023-03-05T16:35:27.371Z,1.77
2023-03-05T16:37:55.967Z,2.00
2023-03-05T16:40:24.501Z,1.77
2023-03-05T16:42:53.449Z,1.17
2023-03-05T16:45:25.408Z,1.67
2023-03-05T16:47:53.609Z,1.13
2023-03-05T16:50:22.122Z,1.55
2023-03-05T16:52:50.481Z,1.60
2023-03-05T16:55:18.692Z,1.63
2023-03-05T16:57:46.854Z,1.92
2023-03-05T17:00:17.920Z,1.73
2023-03-05T17:02:49.875Z,1.13
2023-03-05T17:05:18.060Z,1.33
2023-03-05T17:07:46.465Z,1.13
2023-03-05T17:10:15.659Z,0.95
2023-03-05T17:12:44.257Z,0.93
2023-03-05T17:15:13.151Z,0.98
2023-03-05T17:17:41.517Z,1.27
2023-03-05T17:20:14.379Z,1.00
2023-03-05T17:22:42.800Z,7.18
2023-03-05T17:25:11.624Z,16.02
2023-03-05T17:27:43.380Z,2.65
2023-03-05T17:30:12.979Z,1.67
2023-03-05T17:32:41.730Z,0.95
2023-03-05T17:35:18.306Z,1.15
2023-03-05T17:37:49.024Z,0.90
2023-03-05T17:40:17.761Z,1.10
2023-03-05T17:42:45.820Z,1.73
2023-03-05T17:45:14.438Z,1.53
2023-03-05T17:47:42.739Z,1.33
2023-03-05T17:50:13.690Z,1.60
2023-03-05T17:52:43.989Z,1.33
2023-03-05T17:55:15.105Z,1.43
2023-03-05T17:57:44.924Z,1.60
2023-03-05T18:00:18.550Z,1.30
2023-03-05T18:02:47.573Z,0.77
2023-03-05T18:05:16.402Z,1.00
2023-03-05T18:07:49.647Z,2.33
2023-03-05T18:10:19.854Z,1.77
2023-03-05T18:12:48.095Z,1.70
2023-03-05T18:15:21.290Z,1.70
2023-03-05T18:17:49.852Z,3.57
2023-03-05T18:20:26.190Z,2.53
2023-03-05T18:22:56.078Z,1.70
2023-03-05T18:25:30.886Z,2.30
2023-03-05T18:27:59.891Z,1.90
2023-03-05T18:30:28.952Z,1.70
2023-03-05T18:32:57.449Z,1.43
2023-03-05T18:35:29.145Z,1.93
2023-03-05T18:37:59.258Z,2.40
2023-03-05T18:40:29.461Z,6.60
2023-03-05T18:43:01.962Z,4.85
2023-03-05T18:45:32.385Z,4.50
2023-03-05T18:48:00.562Z,3.67
2023-03-05T18:50:29.951Z,5.13
2023-03-05T18:52:59.481Z,2.83
2023-03-05T18:55:29.896Z,2.47
2023-03-05T18:57:58.652Z,2.70
2023-03-05T19:00:32.083Z,1.80
2023-03-05T19:03:05.904Z,1.80
2023-03-05T19:05:34.178Z,2.20
2023-03-05T19:08:03.637Z,2.10
2023-03-05T19:10:33.474Z,2.40
2023-03-05T19:13:15.794Z,2.50
2023-03-05T19:15:44.359Z,2.13
2023-03-05T19:18:13.240Z,1.77
2023-03-05T19:20:41.953Z,3.03
2023-03-05T19:23:11.726Z,2.30
2023-03-05T19:25:42.299Z,2.83
2023-03-05T19:28:10.694Z,2.30
2023-03-05T19:30:39.292Z,2.27
2023-03-05T19:33:07.693Z,2.70
2023-03-05T19:38:30.386Z,4.03
2023-03-05T19:40:58.603Z,2.97
2023-03-05T19:43:26.974Z,2.87
2023-03-05T19:46:01.638Z,2.43
2023-03-05T19:48:33.815Z,2.27
2023-03-05T19:51:03.439Z,2.37
2023-03-05T19:53:33.162Z,2.83
2023-03-05T19:56:04.978Z,2.23
2023-03-05T19:58:33.780Z,2.73
2023-03-05T20:01:09.828Z,2.83
2023-03-05T20:03:40.619Z,2.53
2023-03-05T20:06:09.870Z,2.10
2023-03-05T20:08:40.382Z,1.57
2023-03-05T20:11:14.509Z,1.57
2023-03-05T20:13:43.696Z,1.63
2023-03-05T20:16:17.010Z,2.10
2023-03-05T20:21:21.645Z,2.10
2023-03-05T20:23:52.244Z,2.50
2023-03-05T20:26:20.999Z,2.57
2023-03-05T20:28:50.855Z,2.20
2023-03-05T20:31:20.877Z,2.73
2023-03-05T20:33:50.039Z,2.97
2023-03-05T20:36:18.463Z,2.57
2023-03-05T20:38:47.297Z,2.30
2023-03-05T20:41:18.902Z,2.70
2023-03-05T20:43:49.169Z,2.00
2023-03-05T20:46:19.751Z,1.90
2023-03-05T20:48:50.447Z,1.93
2023-03-05T20:51:22.695Z,2.07
2023-03-05T20:53:52.090Z,1.87
2023-03-05T20:56:25.165Z,1.70
2023-03-05T20:58:53.829Z,1.63
2023-03-05T21:01:25.327Z,1.83
2023-03-05T21:03:57.063Z,1.80
2023-03-05T21:06:26.542Z,2.00
2023-03-05T21:08:55.099Z,1.47
2023-03-05T21:11:26.313Z,1.60
2023-03-05T21:13:55.189Z,2.13
2023-03-05T21:16:26.000Z,2.67
2023-03-05T21:18:56.109Z,2.47
2023-03-05T21:21:25.133Z,1.63
2023-03-05T21:23:55.735Z,1.80
2023-03-05T21:26:25.422Z,1.47
2023-03-05T21:28:53.715Z,1.33
2023-03-05T21:31:23.187Z,1.83
2023-03-05T21:33:51.993Z,1.73
2023-03-05T21:36:20.648Z,2.07
2023-03-05T21:38:50.402Z,1.63
2023-03-05T21:41:20.657Z,1.70
2023-03-05T21:43:50.297Z,2.00
2023-03-05T21:46:18.783Z,1.70
2023-03-05T21:48:47.090Z,0.97
2023-03-05T21:51:17.497Z,1.53
2023-03-05T21:53:46.629Z,1.50
2023-03-05T21:56:23.837Z,1.50
2023-03-05T21:58:55.910Z,1.60
2023-03-05T22:01:24.565Z,2.33
2023-03-05T22:03:54.016Z,1.53
2023-03-05T22:06:22.594Z,2.17
2023-03-05T22:08:51.089Z,1.60
2023-03-05T22:11:21.215Z,1.40
2023-03-05T22:13:49.372Z,1.90
2023-03-05T22:16:27.200Z,1.27
2023-03-05T22:18:55.786Z,1.53
2023-03-05T22:21:26.634Z,1.90
2023-03-05T22:23:57.012Z,1.77
2023-03-05T22:26:25.930Z,1.47
2023-03-05T22:28:54.195Z,2.27
2023-03-05T22:31:23.435Z,1.90
2023-03-05T22:33:53.600Z,2.07
2023-03-05T22:36:22.485Z,2.77
2023-03-05T22:38:50.889Z,1.73
2023-03-05T22:41:21.115Z,2.23
2023-03-05T22:43:52.083Z,1.97
2023-03-05T22:46:24.894Z,1.83
2023-03-05T22:48:55.331Z,1.50
2023-03-05T22:51:24.068Z,2.37
2023-03-05T22:53:52.397Z,2.13
2023-03-05T22:56:22.342Z,1.87
2023-03-05T22:58:50.535Z,2.10
2023-03-05T23:01:22.341Z,1.73
2023-03-05T23:03:58.673Z,2.37
2023-03-05T23:06:28.030Z,2.37
2023-03-05T23:08:58.890Z,2.20
2023-03-05T23:11:27.562Z,1.60
2023-03-05T23:13:56.092Z,2.10
2023-03-05T23:16:24.436Z,2.00
2023-03-05T23:18:54.438Z,1.80
2023-03-05T23:21:23.754Z,1.93
2023-03-05T23:23:53.190Z,2.40
2023-03-05T23:26:21.501Z,2.60
2023-03-05T23:28:49.815Z,1.67
2023-03-05T23:31:18.818Z,2.17
2023-03-05T23:33:47.322Z,1.87
2023-03-05T23:36:19.864Z,1.90
2023-03-05T23:38:48.873Z,1.92
2023-03-05T23:41:17.180Z,1.77
2023-03-05T23:43:45.309Z,1.97
2023-03-05T23:46:13.651Z,1.70
2023-03-05T23:48:42.159Z,1.57
2023-03-05T23:51:11.852Z,1.60
2023-03-05T23:53:41.729Z,1.83
2023-03-05T23:56:11.160Z,1.47
2023-03-05T23:58:39.960Z,1.60
